createdAt,value
2022-09-21T00:02:28.234Z,59.32
2022-09-21T00:05:11.990Z,60.50
2022-09-21T00:07:57.196Z,59.69
2022-09-21T00:10:41.338Z,59.97
2022-09-21T00:13:28.258Z,60.45
2022-09-21T00:16:12.160Z,60.78
2022-09-21T00:18:55.983Z,60.58
2022-09-21T00:21:40.205Z,61.30
2022-09-21T00:24:25.348Z,61.64
2022-09-21T00:27:09.085Z,61.29
2022-09-21T00:29:53.051Z,61.89
2022-09-21T00:32:38.283Z,61.17
2022-09-21T00:35:21.998Z,61.37
2022-09-21T00:38:06.259Z,62.18
2022-09-21T00:40:51.447Z,61.74
2022-09-21T00:43:36.785Z,62.40
2022-09-21T00:46:27.563Z,60.96
2022-09-21T00:49:11.450Z,61.47
2022-09-21T00:51:56.679Z,60.72
2022-09-21T00:54:48.111Z,59.51
2022-09-21T00:57:35.526Z,58.53
2022-09-21T01:00:19.501Z,58.52
2022-09-21T01:03:03.641Z,59.51
2022-09-21T01:05:47.433Z,60.50
2022-09-21T01:08:31.565Z,60.49
2022-09-21T01:11:34.400Z,60.13
2022-09-21T01:14:45.923Z,60.18
2022-09-21T01:17:43.575Z,60.03
2022-09-21T01:20:52.579Z,61.00
2022-09-21T01:24:10.033Z,60.74
2022-09-21T01:27:30.292Z,61.24
2022-09-21T01:30:18.404Z,61.18
2022-09-21T01:33:07.604Z,61.09
2022-09-21T01:35:57.043Z,61.20
2022-09-21T01:38:46.322Z,60.45
2022-09-21T01:41:33.865Z,60.79
2022-09-21T01:44:22.146Z,61.71
2022-09-21T01:47:11.957Z,62.03
2022-09-21T01:50:01.292Z,61.60
2022-09-21T01:52:51.553Z,62.39
2022-09-21T01:55:42.657Z,62.07
2022-09-21T01:58:33.293Z,61.36
2022-09-21T02:01:22.339Z,61.65
2022-09-21T02:04:12.313Z,61.26
2022-09-21T02:06:56.652Z,62.13
2022-09-21T02:09:40.845Z,62.82
2022-09-21T02:12:24.888Z,63.13
2022-09-21T02:15:09.930Z,62.92
2022-09-21T02:18:02.348Z,63.73
2022-09-21T02:20:54.541Z,62.94
2022-09-21T02:23:44.086Z,63.96
2022-09-21T02:26:34.021Z,63.58
2022-09-21T02:29:24.125Z,63.07
2022-09-21T02:32:10.552Z,63.59
2022-09-21T02:34:58.572Z,63.71
2022-09-21T02:37:49.648Z,63.52
2022-09-21T02:40:40.271Z,63.09
2022-09-21T02:43:29.321Z,63.09
2022-09-21T02:46:17.410Z,62.37
2022-09-21T02:49:08.708Z,61.74
2022-09-21T02:51:55.113Z,62.03
2022-09-21T02:54:43.099Z,62.06
2022-09-21T02:57:27.779Z,62.34
2022-09-21T03:00:13.117Z,61.90
2022-09-21T03:02:56.885Z,62.49
2022-09-21T03:05:40.669Z,62.48
2022-09-21T03:08:24.365Z,62.70
2022-09-21T03:11:10.920Z,62.83
2022-09-21T03:13:54.840Z,62.87
2022-09-21T03:16:39.608Z,63.37
2022-09-21T03:19:23.360Z,63.03
2022-09-21T03:22:07.145Z,63.82
2022-09-21T03:24:51.314Z,63.66
2022-09-21T03:27:36.588Z,64.27
2022-09-21T03:30:20.868Z,64.16
2022-09-21T03:33:05.917Z,64.30
2022-09-21T03:35:50.382Z,64.22
2022-09-21T03:38:34.337Z,64.40
2022-09-21T03:41:19.002Z,64.75
2022-09-21T03:44:04.931Z,64.66
2022-09-21T03:46:48.770Z,65.42
2022-09-21T03:49:32.628Z,64.90
2022-09-21T03:52:16.453Z,64.81
2022-09-21T03:55:00.228Z,64.77
2022-09-21T03:57:43.995Z,65.03
2022-09-21T04:00:29.464Z,66.03
2022-09-21T04:03:13.244Z,65.65
2022-09-21T04:05:57.023Z,65.62
2022-09-21T04:08:40.721Z,64.75
2022-09-21T04:11:24.695Z,65.62
2022-09-21T04:14:08.446Z,66.63
2022-09-21T04:16:54.092Z,66.14
2022-09-21T04:19:37.783Z,66.09
2022-09-21T04:22:21.504Z,66.25
2022-09-21T04:25:06.422Z,65.83
2022-09-21T04:27:50.218Z,65.51
2022-09-21T04:30:37.698Z,64.91
2022-09-21T04:33:24.060Z,64.86
2022-09-21T04:36:08.193Z,63.89
2022-09-21T04:38:52.099Z,63.57
2022-09-21T04:41:35.923Z,63.68
2022-09-21T04:44:19.950Z,63.31
2022-09-21T04:47:03.809Z,62.76
2022-09-21T04:49:49.019Z,62.85
2022-09-21T04:52:33.085Z,62.41
2022-09-21T04:55:17.048Z,62.84
2022-09-21T04:58:00.905Z,62.86
2022-09-21T05:00:44.686Z,62.93
2022-09-21T05:03:28.973Z,63.01
2022-09-21T05:06:15.109Z,62.48
2022-09-21T05:09:16.605Z,63.08
2022-09-21T05:12:00.489Z,63.15
2022-09-21T05:14:45.206Z,62.78
2022-09-21T05:17:29.391Z,62.11
2022-09-21T05:20:13.171Z,61.73
2022-09-21T05:23:01.737Z,62.58
2022-09-21T05:25:45.557Z,61.75
2022-09-21T05:28:29.768Z,61.54
2022-09-21T05:31:28.750Z,61.10
2022-09-21T05:34:27.012Z,61.15
2022-09-21T05:37:18.358Z,60.69
2022-09-21T05:40:04.970Z,59.83
2022-09-21T05:42:49.526Z,60.32
2022-09-21T05:45:34.336Z,60.21
2022-09-21T05:48:20.753Z,59.71
2022-09-21T05:51:10.228Z,58.49
2022-09-21T05:54:00.586Z,58.87
2022-09-21T05:56:54.948Z,58.57
2022-09-21T05:59:54.541Z,59.38
2022-09-21T06:03:17.436Z,57.73
2022-09-21T06:06:01.605Z,58.20
2022-09-21T06:08:45.522Z,56.19
2022-09-21T06:11:29.314Z,56.65
2022-09-21T06:14:14.417Z,55.75
2022-09-21T06:16:58.318Z,55.47
2022-09-21T06:19:42.028Z,55.31
2022-09-21T06:22:26.105Z,56.25
2022-09-21T06:25:10.119Z,54.95
2022-09-21T06:27:54.407Z,55.00
2022-09-21T06:30:42.316Z,55.27
2022-09-21T06:33:26.579Z,53.90
2022-09-21T06:36:10.316Z,53.70
2022-09-21T06:38:54.212Z,53.59
2022-09-21T06:41:38.036Z,53.24
2022-09-21T06:44:27.134Z,51.23
2022-09-21T06:47:12.232Z,52.01
2022-09-21T06:49:56.065Z,52.06
2022-09-21T06:52:40.681Z,50.80
2022-09-21T06:55:24.431Z,50.83
2022-09-21T06:58:08.351Z,51.23
2022-09-21T07:00:52.206Z,50.76
2022-09-21T07:03:38.118Z,51.51
2022-09-21T07:06:22.034Z,50.99
2022-09-21T07:12:09.874Z,49.72
2022-09-21T07:14:53.519Z,49.34
2022-09-21T07:17:38.979Z,47.99
2022-09-21T07:20:24.263Z,49.10
2022-09-21T07:23:12.271Z,48.34
2022-09-21T07:25:56.082Z,47.47
2022-09-21T07:28:40.501Z,47.57
2022-09-21T07:31:24.237Z,46.00
2022-09-21T07:34:08.147Z,45.59
2022-09-21T07:36:54.168Z,45.51
2022-09-21T07:39:38.939Z,44.61
2022-09-21T07:42:25.024Z,44.84
2022-09-21T07:45:10.171Z,44.28
2022-09-21T07:47:54.827Z,44.48
2022-09-21T07:50:38.641Z,44.33
2022-09-21T07:53:23.777Z,43.26
2022-09-21T07:56:10.419Z,43.68
2022-09-21T07:59:08.418Z,44.10
2022-09-21T08:01:52.205Z,43.92
2022-09-21T08:04:36.152Z,44.19
2022-09-21T08:07:20.128Z,44.10
2022-09-21T08:10:05.329Z,44.06
2022-09-21T08:12:49.097Z,44.22
2022-09-21T08:15:50.020Z,43.53
2022-09-21T08:18:37.565Z,43.04
2022-09-21T08:21:21.840Z,42.23
2022-09-21T08:24:06.096Z,42.92
2022-09-21T08:26:52.308Z,41.74
2022-09-21T08:29:36.335Z,42.03
2022-09-21T08:32:39.739Z,41.78
2022-09-21T08:35:23.824Z,41.52
2022-09-21T08:38:08.006Z,41.49
2022-09-21T08:40:53.783Z,41.41
2022-09-21T08:43:43.440Z,41.61
2022-09-21T08:46:32.719Z,41.16
2022-09-21T08:49:21.598Z,40.64
2022-09-21T08:52:08.586Z,40.62
2022-09-21T08:54:57.844Z,41.00
2022-09-21T08:57:41.654Z,40.43
2022-09-21T09:00:27.369Z,39.47
2022-09-21T09:03:27.231Z,39.90
2022-09-21T09:06:16.187Z,40.57
2022-09-21T09:09:19.564Z,39.31
2022-09-21T09:12:18.627Z,39.84
2022-09-21T09:15:19.206Z,39.50
2022-09-21T09:18:10.846Z,39.20
2022-09-21T09:20:59.025Z,39.46
2022-09-21T09:23:46.514Z,38.90
2022-09-21T09:26:37.598Z,39.56
2022-09-21T09:29:27.818Z,39.10
2022-09-21T09:32:15.781Z,38.86
2022-09-21T09:35:06.458Z,37.45
2022-09-21T09:37:52.979Z,38.16
2022-09-21T09:40:56.581Z,37.27
2022-09-21T09:43:52.279Z,37.21
2022-09-21T09:46:51.270Z,37.37
2022-09-21T09:49:43.741Z,36.93
2022-09-21T09:52:28.962Z,36.19
2022-09-21T09:55:20.238Z,35.44
2022-09-21T09:58:04.091Z,36.27
2022-09-21T10:00:52.154Z,36.07
2022-09-21T10:03:37.428Z,35.21
2022-09-21T10:06:32.806Z,35.44
2022-09-21T10:09:26.591Z,36.32
2022-09-21T10:12:20.587Z,36.42
2022-09-21T10:15:05.195Z,34.92
2022-09-21T10:17:50.142Z,34.88
2022-09-21T10:20:34.500Z,33.90
2022-09-21T10:23:18.464Z,32.91
2022-09-21T10:26:08.684Z,32.29
2022-09-21T10:29:00.640Z,32.89
2022-09-21T10:31:57.925Z,32.65
2022-09-21T10:34:43.138Z,33.72
2022-09-21T10:37:29.388Z,31.76
2022-09-21T10:40:25.627Z,32.19
2022-09-21T10:43:25.663Z,33.30
2022-09-21T10:46:09.784Z,33.76
2022-09-21T10:48:53.845Z,34.51
2022-09-21T10:51:37.826Z,36.17
2022-09-21T10:54:27.307Z,36.75
2022-09-21T10:57:17.919Z,36.07
2022-09-21T11:00:29.482Z,35.87
2022-09-21T11:03:43.317Z,36.33
2022-09-21T11:06:32.306Z,35.65
2022-09-21T11:09:22.441Z,36.07
2022-09-21T11:12:19.023Z,36.75
2022-09-21T11:15:14.036Z,36.59
2022-09-21T11:18:06.110Z,37.33
2022-09-21T11:20:54.180Z,37.21
2022-09-21T11:23:48.523Z,37.45
2022-09-21T11:26:40.744Z,37.53
2022-09-21T11:29:30.760Z,37.80
2022-09-21T11:32:34.963Z,37.26
2022-09-21T11:35:35.287Z,37.27
2022-09-21T11:38:34.401Z,36.72
2022-09-21T11:41:35.851Z,37.21
2022-09-21T11:44:33.384Z,36.72
2022-09-21T11:47:35.110Z,37.61
2022-09-21T11:50:32.114Z,36.40
2022-09-21T11:53:43.438Z,36.06
2022-09-21T11:56:43.816Z,44.48
2022-09-21T11:59:43.891Z,49.23
2022-09-21T12:03:02.930Z,55.89
2022-09-21T12:05:55.809Z,60.39
2022-09-21T12:09:21.043Z,63.84
2022-09-21T12:12:11.182Z,58.12
2022-09-21T12:15:03.968Z,60.25
2022-09-21T12:17:58.202Z,59.95
2022-09-21T12:20:51.315Z,60.23
2022-09-21T12:23:42.785Z,61.95
2022-09-21T12:26:32.556Z,58.91
2022-09-21T12:29:25.365Z,58.79
2022-09-21T12:32:20.619Z,58.60
2022-09-21T12:35:13.483Z,59.04
2022-09-21T12:38:03.576Z,60.70
2022-09-21T12:40:53.376Z,61.01
2022-09-21T12:43:51.302Z,62.15
2022-09-21T12:46:42.006Z,61.18
2022-09-21T12:49:32.075Z,58.51
2022-09-21T12:52:22.917Z,60.04
2022-09-21T12:55:24.961Z,57.24
2022-09-21T12:58:16.193Z,52.09
2022-09-21T13:01:12.440Z,53.74
2022-09-21T13:04:12.529Z,54.67
2022-09-21T13:07:19.827Z,53.26
2022-09-21T13:10:16.866Z,54.16
2022-09-21T13:13:03.304Z,53.29
2022-09-21T13:15:49.703Z,53.28
2022-09-21T13:18:36.657Z,54.55
2022-09-21T13:21:23.378Z,54.41
2022-09-21T13:24:14.662Z,53.82
2022-09-21T13:27:05.464Z,54.93
2022-09-21T13:30:30.199Z,53.17
2022-09-21T13:33:40.237Z,52.93
2022-09-21T13:36:32.866Z,51.70
2022-09-21T13:39:19.165Z,50.67
2022-09-21T13:42:49.254Z,52.85
2022-09-21T13:45:52.417Z,47.96
2022-09-21T13:48:37.472Z,53.02
2022-09-21T13:51:21.346Z,49.80
2022-09-21T13:54:06.190Z,49.62
2022-09-21T13:57:04.793Z,49.17
2022-09-21T14:00:07.492Z,47.74
2022-09-21T14:03:01.748Z,49.71
2022-09-21T14:05:49.746Z,47.00
2022-09-21T14:08:37.143Z,45.88
2022-09-21T14:11:31.133Z,44.56
2022-09-21T14:14:25.815Z,45.62
2022-09-21T14:17:36.817Z,48.80
2022-09-21T14:20:30.737Z,47.57
2022-09-21T14:23:30.316Z,48.92
2022-09-21T14:26:24.541Z,49.42
2022-09-21T14:29:18.423Z,50.63
2022-09-21T14:32:05.799Z,51.60
2022-09-21T14:34:53.117Z,51.74
2022-09-21T14:37:41.839Z,51.92
2022-09-21T14:40:28.992Z,53.83
2022-09-21T14:43:20.946Z,52.27
2022-09-21T14:46:33.322Z,52.82
2022-09-21T14:49:33.246Z,50.81
2022-09-21T14:52:33.826Z,49.47
2022-09-21T14:55:24.156Z,50.49
2022-09-21T14:58:32.183Z,48.40
2022-09-21T15:01:38.163Z,46.98
2022-09-21T15:04:32.080Z,46.34
2022-09-21T15:07:53.251Z,45.35
2022-09-21T15:10:58.330Z,45.06
2022-09-21T15:14:03.751Z,44.64
2022-09-21T15:16:50.934Z,44.14
2022-09-21T15:19:38.465Z,44.86
2022-09-21T15:22:27.366Z,45.97
2022-09-21T15:25:15.507Z,44.43
2022-09-21T15:28:00.156Z,43.85
2022-09-21T15:30:46.723Z,43.62
2022-09-21T15:33:33.326Z,44.29
2022-09-21T15:36:22.766Z,43.98
2022-09-21T15:39:07.376Z,44.02
2022-09-21T15:42:13.941Z,45.08
2022-09-21T15:45:15.260Z,46.19
2022-09-21T15:47:59.498Z,45.19
2022-09-21T15:50:45.567Z,47.04
2022-09-21T15:53:34.851Z,47.89
2022-09-21T15:56:22.133Z,48.50
2022-09-21T15:59:09.449Z,48.98
2022-09-21T16:01:57.731Z,49.73
2022-09-21T16:04:49.417Z,50.00
2022-09-21T16:07:35.825Z,50.26
2022-09-21T16:10:39.685Z,50.14
2022-09-21T16:13:42.623Z,50.44
2022-09-21T16:16:28.497Z,50.85
2022-09-21T16:19:12.647Z,51.31
2022-09-21T16:22:05.204Z,51.21
2022-09-21T16:24:52.751Z,52.96
2022-09-21T16:27:36.940Z,53.82
2022-09-21T16:30:41.364Z,52.55
2022-09-21T16:33:43.461Z,52.75
2022-09-21T16:36:42.789Z,53.04
2022-09-21T16:39:27.747Z,54.61
2022-09-21T16:42:12.352Z,54.03
2022-09-21T16:44:56.897Z,54.98
2022-09-21T16:47:41.116Z,55.80
2022-09-21T16:50:27.064Z,55.66
2022-09-21T16:53:11.196Z,55.59
2022-09-21T16:55:56.868Z,56.03
2022-09-21T16:58:43.743Z,56.51
2022-09-21T17:01:28.794Z,55.68
2022-09-21T17:04:14.082Z,55.90
2022-09-21T17:07:00.508Z,57.15
2022-09-21T17:09:47.855Z,56.94
2022-09-21T17:12:32.262Z,58.16
2022-09-21T17:15:16.412Z,57.98
2022-09-21T17:18:00.553Z,58.64
2022-09-21T17:20:45.964Z,59.49
2022-09-21T17:23:31.366Z,59.46
2022-09-21T17:26:21.207Z,59.18
2022-09-21T17:29:15.704Z,58.90
2022-09-21T17:31:59.892Z,59.10
2022-09-21T17:34:43.767Z,58.69
2022-09-21T17:37:27.569Z,58.66
2022-09-21T17:40:14.892Z,59.04
2022-09-21T17:43:12.008Z,58.78
2022-09-21T17:46:03.722Z,58.83
2022-09-21T17:48:48.371Z,58.86
2022-09-21T17:51:48.240Z,59.09
2022-09-21T17:54:32.652Z,59.31
2022-09-21T17:57:31.226Z,58.97
2022-09-21T18:00:20.398Z,59.43
2022-09-21T18:03:05.284Z,59.78
2022-09-21T18:05:50.830Z,59.28
2022-09-21T18:08:36.574Z,59.59
2022-09-21T18:11:52.135Z,59.14
2022-09-21T18:14:48.801Z,59.29
2022-09-21T18:17:54.935Z,59.92
2022-09-21T18:20:48.967Z,59.91
2022-09-21T18:23:42.343Z,59.25
2022-09-21T18:26:26.918Z,59.86
2022-09-21T18:29:38.849Z,59.74
2022-09-21T18:32:49.353Z,59.16
2022-09-21T18:35:49.536Z,59.28
2022-09-21T18:38:39.760Z,59.72
2022-09-21T18:41:34.601Z,60.48
2022-09-21T18:44:26.403Z,59.92
2022-09-21T18:47:16.782Z,59.32
2022-09-21T18:50:08.794Z,58.89
2022-09-21T18:53:02.073Z,58.80
2022-09-21T18:55:47.142Z,58.04
2022-09-21T18:58:32.027Z,58.26
2022-09-21T19:01:19.126Z,57.18
2022-09-21T19:04:03.903Z,58.11
2022-09-21T19:06:56.046Z,58.34
2022-09-21T19:09:46.169Z,60.08
2022-09-21T19:12:53.130Z,60.38
2022-09-21T19:16:00.471Z,59.20
2022-09-21T19:18:54.155Z,60.01
2022-09-21T19:21:47.127Z,60.21
2022-09-21T19:24:39.527Z,60.72
2022-09-21T19:27:33.883Z,60.14
2022-09-21T19:30:18.836Z,60.47
2022-09-21T19:33:45.586Z,62.15
2022-09-21T19:36:25.315Z,62.56
2022-09-21T19:39:10.615Z,62.74
2022-09-21T19:42:07.902Z,62.71
2022-09-21T19:45:07.953Z,62.84
2022-09-21T19:47:53.988Z,63.34
2022-09-21T19:50:41.647Z,62.64
2022-09-21T19:53:43.925Z,62.89
2022-09-21T19:56:46.096Z,62.68
2022-09-21T19:59:44.055Z,62.39
2022-09-21T20:02:32.739Z,61.49
2022-09-21T20:05:23.400Z,61.08
2022-09-21T20:08:17.866Z,60.97
2022-09-21T20:11:13.192Z,60.50
2022-09-21T20:14:12.227Z,61.01
2022-09-21T20:17:00.912Z,60.28
2022-09-21T20:19:51.863Z,60.40
2022-09-21T20:22:37.697Z,60.29
2022-09-21T20:25:26.410Z,60.02
2022-09-21T20:28:11.616Z,60.50
2022-09-21T20:30:55.701Z,59.70
2022-09-21T20:33:40.965Z,59.53
2022-09-21T20:36:24.852Z,59.29
2022-09-21T20:39:08.648Z,59.66
2022-09-21T20:41:52.445Z,59.59
2022-09-21T20:44:36.213Z,59.85
2022-09-21T20:47:21.399Z,58.68
2022-09-21T20:50:10.174Z,59.91
2022-09-21T20:52:53.979Z,59.93
2022-09-21T20:55:37.857Z,60.11
2022-09-21T20:58:21.730Z,59.36
2022-09-21T21:01:06.488Z,59.50
2022-09-21T21:03:51.063Z,59.13
2022-09-21T21:06:37.762Z,59.54
2022-09-21T21:09:21.539Z,60.30
2022-09-21T21:12:05.705Z,59.72
2022-09-21T21:14:49.687Z,59.68
2022-09-21T21:17:35.787Z,60.02
2022-09-21T21:20:20.351Z,59.43
2022-09-21T21:23:08.029Z,59.29
2022-09-21T21:25:52.087Z,59.05
2022-09-21T21:28:36.202Z,59.57
2022-09-21T21:31:21.605Z,59.15
2022-09-21T21:34:05.438Z,58.77
2022-09-21T21:36:49.224Z,59.86
2022-09-21T21:39:34.863Z,60.51
2022-09-21T21:42:19.136Z,61.02
2022-09-21T21:45:02.874Z,61.15
2022-09-21T21:47:47.583Z,61.41
2022-09-21T21:50:31.814Z,62.15
2022-09-21T21:53:15.559Z,62.31
2022-09-21T21:56:09.195Z,63.43
2022-09-21T21:58:54.606Z,63.24
2022-09-21T22:01:39.354Z,64.02
2022-09-21T22:04:27.083Z,63.90
2022-09-21T22:07:11.915Z,63.23
2022-09-21T22:09:55.698Z,63.79
2022-09-21T22:12:40.731Z,64.86
2022-09-21T22:15:26.176Z,64.70
2022-09-21T22:18:09.942Z,64.31
2022-09-21T22:20:53.726Z,64.60
2022-09-21T22:23:38.077Z,64.49
2022-09-21T22:26:22.162Z,65.77
2022-09-21T22:29:09.548Z,65.25
2022-09-21T22:31:55.343Z,65.33
2022-09-21T22:34:39.522Z,66.19
2022-09-21T22:37:23.298Z,65.70
2022-09-21T22:40:08.308Z,66.14
2022-09-21T22:42:52.147Z,65.89
2022-09-21T22:45:37.337Z,66.05
2022-09-21T22:48:21.274Z,66.68
2022-09-21T22:51:05.824Z,67.04
2022-09-21T22:53:51.194Z,66.34
2022-09-21T22:56:35.126Z,67.49
2022-09-21T22:59:18.803Z,66.78
2022-09-21T23:02:03.893Z,66.28
2022-09-21T23:04:47.530Z,66.63
2022-09-21T23:07:31.283Z,67.65
2022-09-21T23:10:15.104Z,67.84
2022-09-21T23:12:58.947Z,67.70
2022-09-21T23:15:42.992Z,67.63
2022-09-21T23:18:28.157Z,67.27
2022-09-21T23:21:14.114Z,68.41
2022-09-21T23:24:00.036Z,68.17
2022-09-21T23:26:44.249Z,67.78
2022-09-21T23:29:28.104Z,68.33
2022-09-21T23:32:11.981Z,68.67
2022-09-21T23:34:57.128Z,67.82
2022-09-21T23:37:40.825Z,69.09
2022-09-21T23:40:24.659Z,68.40
2022-09-21T23:43:08.414Z,67.82
2022-09-21T23:45:52.044Z,68.53
2022-09-21T23:48:36.434Z,68.98
2022-09-21T23:51:22.827Z,69.19
2022-09-21T23:54:07.140Z,69.53
2022-09-21T23:56:51.107Z,69.38
2022-09-21T23:59:34.892Z,70.62
